createdAt,value
2019-05-20T00:00:18.812Z,99.90
2019-05-20T00:02:44.897Z,99.90
2019-05-20T00:05:11.155Z,99.90
2019-05-20T00:07:37.209Z,99.90
2019-05-20T00:10:06.564Z,99.90
2019-05-20T00:12:32.623Z,99.90
2019-05-20T00:14:58.704Z,99.90
2019-05-20T00:17:24.872Z,99.90
2019-05-20T00:19:51.007Z,99.90
2019-05-20T00:22:17.227Z,99.90
2019-05-20T00:24:43.301Z,99.90
2019-05-20T00:27:09.361Z,99.90
2019-05-20T00:29:35.447Z,99.90
2019-05-20T00:32:01.631Z,99.90
2019-05-20T00:34:35.364Z,99.90
2019-05-20T00:36:55.724Z,99.90
2019-05-20T00:39:21.815Z,99.90
2019-05-20T00:41:48.079Z,99.90
2019-05-20T00:44:14.736Z,99.90
2019-05-20T00:46:40.811Z,99.90
2019-05-20T00:49:06.868Z,99.90
2019-05-20T00:51:32.915Z,99.90
2019-05-20T00:53:59.077Z,99.90
2019-05-20T00:56:25.127Z,99.90
2019-05-20T00:58:51.259Z,99.90
2019-05-20T01:01:17.412Z,99.90
2019-05-20T01:03:43.579Z,99.90
2019-05-20T01:06:09.672Z,99.90
2019-05-20T01:08:35.728Z,99.90
2019-05-20T01:11:01.828Z,99.90
2019-05-20T01:13:27.880Z,99.90
2019-05-20T01:15:53.932Z,99.90
2019-05-20T01:18:20.035Z,99.90
2019-05-20T01:20:46.166Z,99.90
2019-05-20T01:23:12.255Z,99.90
2019-05-20T01:25:38.305Z,99.90
2019-05-20T01:28:04.388Z,99.90
2019-05-20T01:30:30.459Z,99.90
2019-05-20T01:33:10.820Z,99.90
2019-05-20T01:35:24.684Z,99.90
2019-05-20T01:37:50.833Z,99.90
2019-05-20T01:40:16.976Z,99.90
2019-05-20T01:42:43.043Z,99.90
2019-05-20T01:45:10.837Z,99.90
2019-05-20T01:47:37.106Z,99.90
2019-05-20T01:50:07.212Z,99.90
2019-05-20T01:52:33.296Z,99.90
2019-05-20T01:54:59.376Z,99.90
2019-05-20T01:57:25.438Z,99.90
2019-05-20T01:59:51.495Z,99.90
2019-05-20T02:07:10.516Z,99.90
2019-05-20T02:09:36.591Z,99.90
2019-05-20T02:12:02.762Z,99.90
2019-05-20T02:14:33.544Z,99.90
2019-05-20T02:17:02.559Z,99.90
2019-05-20T02:19:27.551Z,99.90
2019-05-20T02:21:53.621Z,99.90
2019-05-20T02:24:19.677Z,99.90
2019-05-20T02:26:45.751Z,99.90
2019-05-20T02:29:11.814Z,99.90
2019-05-20T02:31:37.876Z,99.90
2019-05-20T02:34:03.971Z,99.90
2019-05-20T02:36:30.123Z,99.90
2019-05-20T02:38:56.271Z,99.90
2019-05-20T02:41:22.354Z,99.90
2019-05-20T02:43:48.922Z,99.90
2019-05-20T02:46:15.187Z,99.90
2019-05-20T02:48:41.236Z,99.90
2019-05-20T02:51:07.407Z,99.90
2019-05-20T02:53:33.610Z,99.90
2019-05-20T02:55:59.752Z,99.90
2019-05-20T02:58:25.821Z,99.90
2019-05-20T03:00:51.899Z,99.90
2019-05-20T03:03:18.049Z,99.90
2019-05-20T03:05:44.104Z,99.90
2019-05-20T03:08:10.181Z,99.90
2019-05-20T03:10:36.333Z,99.90
2019-05-20T03:13:02.515Z,99.90
2019-05-20T03:15:28.568Z,99.90
2019-05-20T03:17:54.636Z,99.90
2019-05-20T03:20:20.705Z,99.90
2019-05-20T03:22:46.856Z,99.90
2019-05-20T03:25:13.440Z,99.90
2019-05-20T03:27:39.593Z,99.90
2019-05-20T03:30:06.992Z,99.90
2019-05-20T03:32:33.126Z,99.90
2019-05-20T03:35:01.192Z,99.90
2019-05-20T03:37:27.465Z,99.90
2019-05-20T03:39:53.519Z,99.90
2019-05-20T03:42:19.581Z,99.90
2019-05-20T03:44:45.748Z,99.90
2019-05-20T03:47:11.821Z,99.90
2019-05-20T03:49:37.873Z,99.90
2019-05-20T03:52:03.986Z,99.90
2019-05-20T03:54:30.061Z,99.90
2019-05-20T03:56:56.208Z,99.90
2019-05-20T03:59:22.278Z,99.90
2019-05-20T04:01:48.379Z,99.90
2019-05-20T04:04:14.559Z,99.90
2019-05-20T04:06:40.711Z,99.90
2019-05-20T04:09:06.776Z,99.90
2019-05-20T04:11:32.828Z,99.90
2019-05-20T04:13:58.939Z,99.90
2019-05-20T04:16:25.101Z,99.90
2019-05-20T04:18:54.002Z,99.90
2019-05-20T04:21:19.233Z,99.90
2019-05-20T04:23:45.413Z,99.90
2019-05-20T04:26:11.601Z,99.90
2019-05-20T04:28:37.752Z,99.90
2019-05-20T04:31:03.853Z,99.90
2019-05-20T04:33:29.995Z,99.90
2019-05-20T04:35:56.052Z,99.90
2019-05-20T04:38:22.104Z,99.90
2019-05-20T04:40:48.276Z,99.90
2019-05-20T04:43:14.364Z,99.90
2019-05-20T04:45:40.528Z,99.90
2019-05-20T04:48:06.704Z,99.90
2019-05-20T04:50:32.854Z,99.90
2019-05-20T04:52:58.940Z,99.90
2019-05-20T04:55:25.006Z,99.90
2019-05-20T04:57:51.226Z,99.90
2019-05-20T05:00:33.510Z,99.90
2019-05-20T05:02:59.731Z,99.90
2019-05-20T05:05:37.294Z,99.90
2019-05-20T05:07:53.883Z,99.90
2019-05-20T05:10:19.937Z,99.90
2019-05-20T05:12:45.988Z,99.90
2019-05-20T05:15:13.845Z,99.90
2019-05-20T05:17:39.905Z,99.90
2019-05-20T05:20:06.684Z,99.90
2019-05-20T05:22:32.828Z,99.90
2019-05-20T05:24:59.104Z,99.90
2019-05-20T05:27:25.151Z,99.90
2019-05-20T05:29:51.244Z,99.90
2019-05-20T05:32:19.197Z,99.90
2019-05-20T05:34:45.304Z,99.90
2019-05-20T05:37:11.347Z,99.90
2019-05-20T05:39:37.403Z,99.90
2019-05-20T05:42:03.594Z,99.90
2019-05-20T05:44:29.829Z,99.90
2019-05-20T05:46:55.880Z,99.90
2019-05-20T05:49:21.957Z,99.90
2019-05-20T05:51:48.027Z,99.90
2019-05-20T05:54:14.086Z,99.90
2019-05-20T05:56:40.268Z,99.90
2019-05-20T05:59:06.425Z,99.90
2019-05-20T06:01:32.498Z,99.90
2019-05-20T06:03:58.709Z,99.90
2019-05-20T06:06:24.837Z,99.90
2019-05-20T06:08:50.948Z,99.90
2019-05-20T06:11:17.064Z,99.90
2019-05-20T06:13:43.624Z,99.90
2019-05-20T06:16:09.828Z,99.90
2019-05-20T06:18:35.898Z,99.90
2019-05-20T06:21:02.114Z,99.70
2019-05-20T06:23:28.268Z,98.90
2019-05-20T06:25:54.342Z,99.10
2019-05-20T06:28:20.492Z,98.80
2019-05-20T06:30:46.543Z,98.50
2019-05-20T06:33:12.713Z,98.30
2019-05-20T06:35:39.068Z,98.50
2019-05-20T06:38:07.343Z,98.40
2019-05-20T06:40:33.401Z,98.60
2019-05-20T06:42:59.467Z,97.50
2019-05-20T06:45:25.519Z,97.10
2019-05-20T06:47:51.579Z,97.00
2019-05-20T06:50:17.747Z,97.10
2019-05-20T06:52:43.920Z,96.60
2019-05-20T06:55:10.523Z,95.70
2019-05-20T06:57:37.282Z,95.30
2019-05-20T07:00:06.647Z,94.80
2019-05-20T07:02:32.706Z,94.50
2019-05-20T07:04:58.780Z,94.90
2019-05-20T07:07:24.938Z,94.60
2019-05-20T07:09:51.292Z,94.30
2019-05-20T07:12:17.349Z,94.00
2019-05-20T07:14:43.416Z,93.80
2019-05-20T07:17:09.522Z,93.50
2019-05-20T07:19:35.572Z,93.40
2019-05-20T07:22:01.619Z,93.00
2019-05-20T07:24:27.716Z,93.40
2019-05-20T07:26:53.787Z,92.80
2019-05-20T07:29:19.861Z,93.00
2019-05-20T07:31:46.012Z,92.30
2019-05-20T07:34:12.172Z,91.80
2019-05-20T07:36:38.349Z,90.90
2019-05-20T07:39:06.300Z,90.90
2019-05-20T07:41:32.400Z,90.70
2019-05-20T07:43:58.464Z,90.40
2019-05-20T07:46:24.908Z,89.60
2019-05-20T07:48:51.224Z,88.70
2019-05-20T07:51:19.409Z,87.50
2019-05-20T07:53:45.617Z,88.80
2019-05-20T07:56:15.573Z,88.40
2019-05-20T07:58:45.437Z,87.00
2019-05-20T08:01:11.692Z,87.50
2019-05-20T08:03:38.680Z,86.90
2019-05-20T08:06:05.208Z,86.70
2019-05-20T08:08:31.269Z,85.70
2019-05-20T08:10:57.331Z,85.00
2019-05-20T08:13:23.416Z,83.40
2019-05-20T08:15:49.485Z,83.70
2019-05-20T08:18:15.552Z,82.90
2019-05-20T08:20:41.605Z,80.40
2019-05-20T08:23:07.672Z,79.30
2019-05-20T08:25:33.796Z,78.80
2019-05-20T08:27:59.903Z,79.20
2019-05-20T08:30:32.219Z,77.60
2019-05-20T08:32:58.372Z,77.10
2019-05-20T08:35:24.428Z,76.10
2019-05-20T08:37:50.492Z,77.60
2019-05-20T08:40:16.589Z,75.40
2019-05-20T08:42:42.720Z,75.50
2019-05-20T08:45:09.308Z,73.10
2019-05-20T08:47:35.481Z,74.10
2019-05-20T08:50:04.343Z,74.90
2019-05-20T08:52:30.207Z,75.30
2019-05-20T08:54:56.362Z,76.00
2019-05-20T08:57:22.482Z,75.50
2019-05-20T08:59:48.744Z,76.00
2019-05-20T09:02:14.792Z,76.30
2019-05-20T09:04:40.856Z,77.10
2019-05-20T09:07:06.916Z,78.00
2019-05-20T09:09:33.264Z,78.70
2019-05-20T09:11:59.644Z,78.90
2019-05-20T09:14:25.706Z,78.70
2019-05-20T09:16:51.868Z,79.10
2019-05-20T09:19:17.977Z,79.50
2019-05-20T09:21:44.089Z,79.40
2019-05-20T09:24:10.162Z,77.20
2019-05-20T09:26:36.221Z,77.90
2019-05-20T09:29:02.265Z,78.80
2019-05-20T09:31:28.483Z,77.70
2019-05-20T09:33:54.986Z,77.70
2019-05-20T09:36:21.084Z,78.30
2019-05-20T09:38:47.205Z,78.60
2019-05-20T09:41:13.348Z,79.00
2019-05-20T09:43:39.494Z,78.60
2019-05-20T09:46:08.169Z,76.40
2019-05-20T09:48:33.634Z,76.30
2019-05-20T09:50:59.712Z,77.20
2019-05-20T09:53:25.861Z,76.40
2019-05-20T09:55:52.065Z,75.50
2019-05-20T09:58:18.178Z,76.30
2019-05-20T10:00:45.084Z,74.90
2019-05-20T10:03:11.281Z,74.70
2019-05-20T10:05:37.949Z,74.00
2019-05-20T10:08:04.234Z,73.30
2019-05-20T10:10:30.689Z,74.50
2019-05-20T10:12:56.797Z,74.20
2019-05-20T10:15:23.256Z,73.80
2019-05-20T10:17:49.414Z,73.00
2019-05-20T10:20:15.778Z,72.40
2019-05-20T10:22:41.941Z,73.10
2019-05-20T10:25:08.697Z,73.90
2019-05-20T10:27:34.805Z,74.70
2019-05-20T10:30:00.950Z,76.00
2019-05-20T10:32:27.010Z,74.60
2019-05-20T10:34:53.074Z,74.90
2019-05-20T10:37:19.192Z,76.00
2019-05-20T10:39:45.352Z,76.30
2019-05-20T10:42:11.404Z,76.00
2019-05-20T10:44:37.468Z,77.20
2019-05-20T10:47:03.572Z,77.20
2019-05-20T10:49:29.707Z,77.50
2019-05-20T10:51:55.761Z,77.80
2019-05-20T10:54:21.872Z,76.40
2019-05-20T10:56:47.930Z,76.50
2019-05-20T10:59:14.031Z,76.40
2019-05-20T11:01:40.278Z,76.30
2019-05-20T11:04:06.395Z,76.20
2019-05-20T11:06:32.456Z,74.90
2019-05-20T11:09:13.135Z,76.20
2019-05-20T11:11:26.512Z,77.40
2019-05-20T11:13:52.716Z,77.20
2019-05-20T11:16:18.772Z,77.10
2019-05-20T11:18:44.829Z,78.00
2019-05-20T11:21:11.260Z,78.20
2019-05-20T11:23:37.327Z,77.30
2019-05-20T11:26:03.524Z,76.70
2019-05-20T11:28:29.687Z,75.60
2019-05-20T11:30:56.041Z,76.00
2019-05-20T11:33:22.093Z,75.90
2019-05-20T11:35:48.148Z,76.00
2019-05-20T11:38:14.202Z,76.90
2019-05-20T11:40:40.265Z,77.20
2019-05-20T11:43:06.421Z,77.20
2019-05-20T11:45:32.638Z,78.00
2019-05-20T11:47:58.716Z,77.50
2019-05-20T11:50:24.871Z,78.30
2019-05-20T11:52:50.931Z,79.10
2019-05-20T11:55:16.984Z,80.00
2019-05-20T11:57:43.148Z,79.40
2019-05-20T12:00:10.412Z,78.80
2019-05-20T12:02:36.484Z,78.90
2019-05-20T12:05:06.366Z,77.10
2019-05-20T12:07:32.423Z,76.80
2019-05-20T12:09:58.491Z,76.50
2019-05-20T12:12:24.606Z,75.70
2019-05-20T12:14:50.944Z,76.40
2019-05-20T12:17:17.006Z,76.10
2019-05-20T12:19:43.166Z,76.50
2019-05-20T12:22:09.228Z,75.30
2019-05-20T12:24:35.292Z,76.20
2019-05-20T12:27:01.369Z,77.30
2019-05-20T12:29:27.424Z,77.00
2019-05-20T12:31:53.479Z,77.10
2019-05-20T12:34:19.548Z,76.80
2019-05-20T12:36:45.712Z,76.60
2019-05-20T12:39:11.797Z,77.60
2019-05-20T12:41:38.015Z,77.20
2019-05-20T12:44:11.750Z,77.40
2019-05-20T12:46:32.273Z,75.30
2019-05-20T12:48:58.407Z,76.50
2019-05-20T12:51:24.544Z,76.20
2019-05-20T12:53:50.593Z,76.40
2019-05-20T12:56:19.469Z,75.20
2019-05-20T12:58:44.652Z,75.70
2019-05-20T13:01:10.712Z,74.70
2019-05-20T13:03:36.808Z,75.00
2019-05-20T13:06:03.168Z,75.40
2019-05-20T13:08:29.222Z,75.90
2019-05-20T13:10:55.377Z,75.40
2019-05-20T13:13:22.185Z,75.00
2019-05-20T13:15:48.380Z,76.00
2019-05-20T13:18:14.549Z,75.80
2019-05-20T13:20:40.608Z,76.70
2019-05-20T13:23:08.956Z,75.90
2019-05-20T13:25:34.669Z,77.60
2019-05-20T13:28:00.732Z,77.10
2019-05-20T13:30:27.253Z,76.10
2019-05-20T13:32:53.455Z,76.50
2019-05-20T13:35:19.517Z,76.50
2019-05-20T13:37:45.591Z,76.80
2019-05-20T13:40:12.244Z,77.40
2019-05-20T13:42:38.353Z,76.50
2019-05-20T13:45:05.316Z,76.70
2019-05-20T13:47:31.396Z,76.70
2019-05-20T13:49:57.451Z,76.10
2019-05-20T13:52:23.517Z,76.60
2019-05-20T13:54:49.610Z,75.30
2019-05-20T13:57:15.810Z,75.40
2019-05-20T13:59:41.973Z,75.00
2019-05-20T14:02:08.075Z,75.30
2019-05-20T14:04:34.144Z,76.70
2019-05-20T14:07:00.305Z,76.50
2019-05-20T14:09:26.392Z,76.90
2019-05-20T14:11:52.458Z,76.50
2019-05-20T14:14:18.525Z,76.90
2019-05-20T14:16:44.656Z,76.50
2019-05-20T14:19:10.835Z,76.00
2019-05-20T14:21:36.924Z,76.00
2019-05-20T14:24:03.180Z,76.70
2019-05-20T14:26:29.240Z,75.30
2019-05-20T14:28:55.340Z,75.00
2019-05-20T14:31:21.498Z,74.40
2019-05-20T14:33:47.681Z,75.10
2019-05-20T14:36:36.081Z,75.20
2019-05-20T14:38:41.704Z,75.40
2019-05-20T14:41:20.937Z,76.10
2019-05-20T14:43:36.121Z,75.50
2019-05-20T14:46:02.333Z,75.80
2019-05-20T14:48:28.476Z,74.70
2019-05-20T14:50:54.536Z,74.60
2019-05-20T14:53:20.603Z,75.40
2019-05-20T14:55:46.684Z,75.30
2019-05-20T14:58:12.833Z,74.80
2019-05-20T15:00:38.961Z,74.50
2019-05-20T15:03:05.033Z,74.60
2019-05-20T15:05:31.460Z,73.70
2019-05-20T15:07:57.781Z,72.90
2019-05-20T15:10:24.248Z,73.00
2019-05-20T15:12:50.316Z,72.00
2019-05-20T15:15:16.493Z,72.20
2019-05-20T15:17:42.560Z,71.80
2019-05-20T15:20:09.117Z,70.40
2019-05-20T15:22:35.204Z,70.90
2019-05-20T15:25:01.393Z,70.20
2019-05-20T15:27:27.527Z,70.20
2019-05-20T15:29:53.696Z,69.50
2019-05-20T15:32:19.752Z,69.60
2019-05-20T15:34:45.921Z,71.40
2019-05-20T15:37:12.056Z,71.20
2019-05-20T15:39:38.251Z,71.30
2019-05-20T15:42:04.316Z,71.20
2019-05-20T15:44:30.416Z,71.40
2019-05-20T15:46:56.486Z,70.60
2019-05-20T15:49:22.639Z,70.90
2019-05-20T15:51:48.799Z,71.80
2019-05-20T15:54:14.864Z,71.60
2019-05-20T15:56:40.956Z,71.80
2019-05-20T15:59:07.033Z,72.60
2019-05-20T16:01:33.087Z,72.30
2019-05-20T16:03:59.168Z,72.50
2019-05-20T16:06:25.229Z,72.00
2019-05-20T16:08:51.332Z,72.90
2019-05-20T16:11:17.392Z,71.90
2019-05-20T16:13:43.473Z,72.10
2019-05-20T16:16:12.816Z,72.20
2019-05-20T16:18:37.588Z,71.70
2019-05-20T16:21:03.646Z,72.20
2019-05-20T16:23:29.701Z,72.60
2019-05-20T16:25:55.780Z,73.10
2019-05-20T16:28:21.872Z,72.20
2019-05-20T16:30:47.930Z,72.20
2019-05-20T16:33:14.019Z,72.30
2019-05-20T16:35:40.077Z,71.90
2019-05-20T16:38:06.123Z,71.90
2019-05-20T16:40:32.188Z,70.90
2019-05-20T16:42:58.256Z,71.50
2019-05-20T16:45:24.618Z,71.80
2019-05-20T16:47:50.673Z,72.50
2019-05-20T16:50:17.174Z,72.50
2019-05-20T16:52:43.361Z,72.10
2019-05-20T16:55:09.909Z,71.20
2019-05-20T16:57:35.973Z,71.30
2019-05-20T17:00:07.425Z,72.10
2019-05-20T17:02:31.976Z,72.20
2019-05-20T17:04:58.035Z,72.20
2019-05-20T17:07:24.127Z,72.20
2019-05-20T17:09:50.508Z,72.50
2019-05-20T17:12:16.639Z,73.20
2019-05-20T17:14:42.825Z,71.80
2019-05-20T17:17:08.880Z,71.40
2019-05-20T17:19:34.931Z,71.50
2019-05-20T17:22:01.011Z,71.70
2019-05-20T17:24:27.081Z,72.00
2019-05-20T17:26:53.156Z,72.20
2019-05-20T17:29:19.215Z,72.00
2019-05-20T17:31:45.402Z,71.40
2019-05-20T17:34:11.617Z,72.10
2019-05-20T17:36:37.692Z,71.80
2019-05-20T17:39:04.335Z,72.20
2019-05-20T17:41:30.442Z,72.50
2019-05-20T17:43:56.575Z,72.40
2019-05-20T17:46:22.736Z,72.80
2019-05-20T17:48:48.795Z,72.80
2019-05-20T17:51:15.008Z,73.00
2019-05-20T17:53:41.076Z,74.30
2019-05-20T17:56:07.273Z,73.40
2019-05-20T17:58:33.367Z,73.60
2019-05-20T18:01:14.877Z,73.20
2019-05-20T18:03:30.852Z,73.00
2019-05-20T18:05:57.066Z,72.90
2019-05-20T18:08:25.145Z,73.40
2019-05-20T18:10:51.292Z,73.80
2019-05-20T18:13:17.348Z,73.80
2019-05-20T18:15:43.417Z,74.10
2019-05-20T18:18:09.513Z,74.20
2019-05-20T18:20:35.563Z,74.00
2019-05-20T18:23:01.621Z,74.00
2019-05-20T18:25:27.694Z,73.90
2019-05-20T18:27:53.918Z,74.30
2019-05-20T18:30:20.590Z,74.60
2019-05-20T18:32:46.844Z,75.70
2019-05-20T18:35:13.204Z,75.50
2019-05-20T18:37:39.411Z,76.10
2019-05-20T18:40:14.001Z,76.90
2019-05-20T18:42:35.388Z,77.70
2019-05-20T18:45:01.454Z,78.00
2019-05-20T18:47:27.604Z,78.50
2019-05-20T18:49:53.666Z,79.00
2019-05-20T18:52:19.724Z,79.40
2019-05-20T18:54:45.779Z,79.80
2019-05-20T18:57:11.912Z,80.20
2019-05-20T18:59:37.999Z,80.80
2019-05-20T19:02:05.724Z,81.00
2019-05-20T19:04:32.104Z,81.30
2019-05-20T19:06:58.281Z,81.70
2019-05-20T19:09:24.330Z,82.20
2019-05-20T19:11:50.379Z,82.40
2019-05-20T19:14:16.448Z,82.30
2019-05-20T19:16:42.496Z,82.90
2019-05-20T19:19:08.580Z,83.20
2019-05-20T19:21:34.732Z,83.50
2019-05-20T19:24:00.841Z,83.90
2019-05-20T19:26:26.890Z,84.20
2019-05-20T19:28:52.952Z,84.60
2019-05-20T19:31:19.155Z,84.90
2019-05-20T19:33:45.216Z,85.10
2019-05-20T19:36:11.367Z,85.40
2019-05-20T19:38:37.448Z,85.60
2019-05-20T19:41:03.921Z,86.00
2019-05-20T19:43:29.971Z,86.30
2019-05-20T19:45:56.043Z,86.20
2019-05-20T19:48:22.097Z,86.90
2019-05-20T19:50:48.261Z,87.10
2019-05-20T19:53:14.327Z,87.30
2019-05-20T19:55:40.372Z,88.30
2019-05-20T19:58:06.431Z,87.80
2019-05-20T20:00:32.479Z,88.10
2019-05-20T20:02:58.543Z,88.40
2019-05-20T20:05:24.621Z,88.40
2019-05-20T20:07:50.732Z,90.10
2019-05-20T20:10:16.896Z,88.80
2019-05-20T20:12:42.950Z,89.40
2019-05-20T20:15:16.412Z,89.30
2019-05-20T20:17:42.580Z,89.90
2019-05-20T20:20:08.627Z,90.10
2019-05-20T20:22:34.687Z,90.10
2019-05-20T20:25:00.744Z,90.10
2019-05-20T20:27:26.804Z,90.10
2019-05-20T20:29:52.856Z,88.00
2019-05-20T20:32:35.141Z,90.00
2019-05-20T20:34:46.912Z,90.00
2019-05-20T20:37:13.075Z,89.70
2019-05-20T20:39:39.130Z,89.40
2019-05-20T20:42:05.187Z,89.10
2019-05-20T20:44:31.247Z,88.50
2019-05-20T20:46:57.307Z,88.30
2019-05-20T20:49:23.363Z,88.20
2019-05-20T20:51:49.460Z,88.20
2019-05-20T20:54:15.579Z,87.90
2019-05-20T20:56:41.663Z,88.60
2019-05-20T20:59:08.079Z,87.60
2019-05-20T21:01:34.184Z,87.60
2019-05-20T21:04:00.248Z,87.30
2019-05-20T21:06:26.299Z,87.50
2019-05-20T21:08:52.365Z,87.40
2019-05-20T21:11:18.435Z,87.50
2019-05-20T21:13:44.500Z,87.50
2019-05-20T21:16:10.575Z,87.60
2019-05-20T21:18:36.640Z,87.90
2019-05-20T21:21:02.720Z,87.90
2019-05-20T21:23:28.781Z,88.20
2019-05-20T21:25:54.839Z,88.30
2019-05-20T21:28:20.932Z,88.50
2019-05-20T21:30:46.995Z,88.50
2019-05-20T21:33:13.047Z,88.50
2019-05-20T21:35:39.184Z,88.50
2019-05-20T21:38:05.348Z,88.50
2019-05-20T21:40:31.568Z,88.70
2019-05-20T21:42:57.711Z,88.40
2019-05-20T21:45:23.803Z,88.40
2019-05-20T21:47:49.958Z,88.40
2019-05-20T21:50:16.015Z,88.40
2019-05-20T21:52:42.099Z,88.40
2019-05-20T21:55:08.755Z,88.60
2019-05-20T21:57:34.811Z,88.40
2019-05-20T22:00:00.904Z,88.40
2019-05-20T22:02:27.052Z,88.20
2019-05-20T22:04:53.107Z,87.70
2019-05-20T22:07:19.249Z,87.70
2019-05-20T22:09:45.382Z,87.80
2019-05-20T22:12:11.596Z,87.60
2019-05-20T22:14:37.712Z,87.80
2019-05-20T22:17:03.804Z,87.80
2019-05-20T22:19:29.996Z,87.70
2019-05-20T22:22:15.875Z,87.50
2019-05-20T22:24:41.931Z,87.40
2019-05-20T22:27:08.080Z,87.60
2019-05-20T22:29:34.142Z,87.40
2019-05-20T22:32:00.347Z,87.40
2019-05-20T22:34:26.412Z,87.50
2019-05-20T22:36:52.564Z,87.50
2019-05-20T22:39:18.659Z,87.40
2019-05-20T22:41:44.704Z,87.60
2019-05-20T22:44:10.756Z,87.70
2019-05-20T22:46:36.841Z,87.60
2019-05-20T22:49:02.890Z,87.70
2019-05-20T22:51:28.948Z,87.80
2019-05-20T22:53:55.014Z,87.90
2019-05-20T22:56:21.097Z,87.90
2019-05-20T22:58:47.268Z,87.90
2019-05-20T23:01:13.368Z,88.00
2019-05-20T23:03:39.571Z,87.90
2019-05-20T23:06:05.632Z,88.40
2019-05-20T23:08:31.699Z,89.00
2019-05-20T23:10:57.856Z,89.30
2019-05-20T23:13:23.915Z,89.90
2019-05-20T23:15:49.971Z,90.20
2019-05-20T23:18:16.043Z,90.50
2019-05-20T23:20:42.419Z,90.50
2019-05-20T23:23:08.579Z,90.90
2019-05-20T23:25:34.632Z,91.30
2019-05-20T23:28:00.712Z,91.40
2019-05-20T23:30:26.763Z,91.60
2019-05-20T23:32:52.827Z,91.60
2019-05-20T23:35:19.016Z,92.00
2019-05-20T23:37:45.080Z,92.20
2019-05-20T23:40:11.248Z,92.20
2019-05-20T23:42:37.300Z,92.20
2019-05-20T23:45:08.442Z,92.20
2019-05-20T23:47:34.612Z,92.40
2019-05-20T23:50:00.683Z,92.60
2019-05-20T23:52:26.739Z,92.50
2019-05-20T23:54:52.795Z,92.50
2019-05-20T23:57:18.871Z,92.60
2019-05-20T23:59:45.019Z,92.60
